AFR121 EDDB-LFMN
Flight info
| Callsign | AFR121 |
|---|---|
| Flight time | N/A |
| Altitude | 36000 |
| Route | LUROS4N LUROS Y211 BEBKU Z36 MAREM DCT RUDAP DCT EBEDA DCT BADVI DCT BERAS DCT OLPIX/N0452F350 DCT EKPEB DCT ATPED DCT LUSIL DCT EVANO DCT ENOBA Z185 ASBOP/N0399F190 Z185 BORDI |
| Aircraft | A320/M-SDE3FGHIRWY/LB1 |
Departure
| Time | 2026-05-01 14:32 |
|---|---|
| Airport | Berlin Brandenburg Airport (EDDB) |
Arrival
| Time | N/A |
|---|---|
| Airport | Nice-Côte d'Azur Airport (LFMN) |
| Time | Latitude | Longitude | Altitude | Speed | Heading |
|---|---|---|---|---|---|
| 2026-05-01 13:41 | 52.36552 | 13.50490 | 159 ft | 0 kts | 67° |
| 2026-05-01 14:08 | 52.36552 | 13.50489 | 159 ft | 0 kts | 67° |
| 2026-05-01 14:20 | 52.36549 | 13.50481 | 158 ft | 2 kts | 67° |
| 2026-05-01 14:20 | 52.36543 | 13.50455 | 158 ft | 2 kts | 95° |
| 2026-05-01 14:21 | 52.36549 | 13.50431 | 158 ft | 2 kts | 166° |
| 2026-05-01 14:21 | 52.36552 | 13.50430 | 158 ft | 0 kts | 169° |
| 2026-05-01 14:23 | 52.36548 | 13.50431 | 158 ft | 3 kts | 169° |
| 2026-05-01 14:23 | 52.36500 | 13.50441 | 158 ft | 8 kts | 176° |
| 2026-05-01 14:23 | 52.36449 | 13.50438 | 158 ft | 7 kts | 184° |
| 2026-05-01 14:24 | 52.36408 | 13.50436 | 158 ft | 5 kts | 178° |
| 2026-05-01 14:24 | 52.36377 | 13.50444 | 158 ft | 4 kts | 168° |
| 2026-05-01 14:24 | 52.36354 | 13.50456 | 158 ft | 4 kts | 161° |
| 2026-05-01 14:24 | 52.36315 | 13.50480 | 158 ft | 8 kts | 158° |
| 2026-05-01 14:25 | 52.36250 | 13.50523 | 158 ft | 12 kts | 157° |
| 2026-05-01 14:25 | 52.36160 | 13.50587 | 158 ft | 16 kts | 156° |
| 2026-05-01 14:25 | 52.36059 | 13.50658 | 158 ft | 15 kts | 156° |
| 2026-05-01 14:25 | 52.35960 | 13.50720 | 158 ft | 15 kts | 160° |
| 2026-05-01 14:26 | 52.35867 | 13.50775 | 158 ft | 13 kts | 159° |
| 2026-05-01 14:26 | 52.35865 | 13.51003 | 158 ft | 9 kts | 69° |
| 2026-05-01 14:26 | 52.35887 | 13.51094 | 158 ft | 8 kts | 68° |
| 2026-05-01 14:27 | 52.35905 | 13.51172 | 158 ft | 7 kts | 68° |
| 2026-05-01 14:27 | 52.35921 | 13.51236 | 158 ft | 6 kts | 68° |
| 2026-05-01 14:27 | 52.35933 | 13.51288 | 158 ft | 4 kts | 68° |
| 2026-05-01 14:28 | 52.35996 | 13.51549 | 158 ft | 21 kts | 69° |
| 2026-05-01 14:28 | 52.36048 | 13.51766 | 158 ft | 19 kts | 69° |
| 2026-05-01 14:28 | 52.36095 | 13.51960 | 159 ft | 17 kts | 69° |
| 2026-05-01 14:28 | 52.36085 | 13.52132 | 158 ft | 15 kts | 134° |
| 2026-05-01 14:29 | 52.35998 | 13.52202 | 158 ft | 12 kts | 163° |
| 2026-05-01 14:29 | 52.35994 | 13.52204 | 159 ft | 0 kts | 163° |
| 2026-05-01 14:30 | 52.35967 | 13.52218 | 159 ft | 12 kts | 163° |
| 2026-05-01 14:30 | 52.35878 | 13.52261 | 159 ft | 12 kts | 163° |
| 2026-05-01 14:31 | 52.35796 | 13.52126 | 158 ft | 10 kts | 246° |
| 2026-05-01 14:31 | 52.35679 | 13.51634 | 158 ft | 81 kts | 249° |
| 2026-05-01 14:31 | 52.35407 | 13.50473 | 156 ft | 136 kts | 249° |
| 2026-05-01 14:31 | 52.35008 | 13.48799 | 161 ft | 177 kts | 248° |
| 2026-05-01 14:32 | 52.34537 | 13.46906 | 724 ft | 178 kts | 247° |
| 2026-05-01 14:32 | 52.34034 | 13.45042 | 1408 ft | 180 kts | 244° |
| 2026-05-01 14:32 | 52.33306 | 13.43404 | 2137 ft | 178 kts | 224° |
| 2026-05-01 14:32 | 52.32362 | 13.42038 | 2656 ft | 190 kts | 224° |
| 2026-05-01 14:33 | 52.31393 | 13.40395 | 2932 ft | 211 kts | 229° |
| 2026-05-01 14:33 | 52.30375 | 13.38483 | 3348 ft | 231 kts | 230° |
| 2026-05-01 14:33 | 52.29322 | 13.36474 | 4114 ft | 235 kts | 229° |
| 2026-05-01 14:33 | 52.28250 | 13.34436 | 4915 ft | 239 kts | 228° |
| 2026-05-01 14:34 | 52.27153 | 13.32369 | 5683 ft | 243 kts | 228° |
| 2026-05-01 14:34 | 52.26027 | 13.30274 | 6466 ft | 247 kts | 227° |
| 2026-05-01 14:34 | 52.24782 | 13.28325 | 7181 ft | 250 kts | 209° |
| 2026-05-01 14:34 | 52.23161 | 13.27418 | 7867 ft | 248 kts | 180° |
| 2026-05-01 14:35 | 52.21504 | 13.27861 | 8565 ft | 245 kts | 152° |
| 2026-05-01 14:35 | 52.20144 | 13.29538 | 9329 ft | 244 kts | 125° |
| 2026-05-01 14:35 | 52.19437 | 13.31990 | 10064 ft | 244 kts | 100° |
| 2026-05-01 14:35 | 52.19291 | 13.34751 | 10773 ft | 246 kts | 86° |
| 2026-05-01 14:36 | 52.19587 | 13.37566 | 11187 ft | 263 kts | 74° |
| 2026-05-01 14:36 | 52.20113 | 13.40538 | 11558 ft | 279 kts | 74° |
| 2026-05-01 14:36 | 52.20652 | 13.43603 | 12224 ft | 284 kts | 73° |
| 2026-05-01 14:36 | 52.21195 | 13.46717 | 12978 ft | 286 kts | 73° |
| 2026-05-01 14:37 | 52.21734 | 13.49848 | 13727 ft | 288 kts | 73° |
| 2026-05-01 14:37 | 52.22273 | 13.52998 | 14430 ft | 290 kts | 73° |
| 2026-05-01 14:37 | 52.22816 | 13.56179 | 15077 ft | 292 kts | 73° |
| 2026-05-01 14:37 | 52.23362 | 13.59394 | 15704 ft | 295 kts | 73° |
| 2026-05-01 14:38 | 52.23912 | 13.62632 | 16340 ft | 297 kts | 73° |
| 2026-05-01 14:38 | 52.24468 | 13.65898 | 16963 ft | 300 kts | 73° |
| 2026-05-01 14:38 | 52.25027 | 13.69189 | 17613 ft | 302 kts | 73° |
| 2026-05-01 14:38 | 52.25589 | 13.72507 | 18244 ft | 305 kts | 73° |
| 2026-05-01 14:39 | 52.26154 | 13.75851 | 18839 ft | 307 kts | 73° |
| 2026-05-01 14:39 | 52.26722 | 13.79224 | 19366 ft | 310 kts | 73° |
| 2026-05-01 14:39 | 52.27296 | 13.82634 | 19892 ft | 312 kts | 73° |
| 2026-05-01 14:39 | 52.27872 | 13.86068 | 20421 ft | 315 kts | 73° |
| 2026-05-01 14:40 | 52.28451 | 13.89532 | 20934 ft | 317 kts | 73° |
| 2026-05-01 14:40 | 52.29031 | 13.93026 | 21438 ft | 320 kts | 73° |
| 2026-05-01 14:40 | 52.29615 | 13.96544 | 21950 ft | 322 kts | 73° |
| 2026-05-01 14:40 | 52.30000 | 14.00161 | 22481 ft | 327 kts | 88° |
| 2026-05-01 14:41 | 52.29610 | 14.03847 | 22985 ft | 336 kts | 108° |
| 2026-05-01 14:41 | 52.28381 | 14.07143 | 23410 ft | 349 kts | 129° |
| 2026-05-01 14:41 | 52.26366 | 14.09533 | 23548 ft | 372 kts | 154° |
| 2026-05-01 14:41 | 52.23783 | 14.10530 | 23689 ft | 391 kts | 169° |
| 2026-05-01 14:42 | 52.21043 | 14.11090 | 23829 ft | 402 kts | 169° |
| 2026-05-01 14:42 | 52.18228 | 14.11653 | 23961 ft | 413 kts | 169° |
| 2026-05-01 14:42 | 52.15341 | 14.12225 | 24084 ft | 423 kts | 169° |
| 2026-05-01 14:42 | 52.12378 | 14.12822 | 24202 ft | 433 kts | 169° |
| 2026-05-01 14:43 | 52.09397 | 14.13434 | 24315 ft | 441 kts | 169° |
| 2026-05-01 14:43 | 52.06323 | 14.14070 | 24433 ft | 449 kts | 169° |
| 2026-05-01 14:43 | 52.03195 | 14.14715 | 24593 ft | 456 kts | 169° |
| 2026-05-01 14:43 | 52.00037 | 14.15363 | 24863 ft | 459 kts | 170° |
| 2026-05-01 14:44 | 51.96855 | 14.16014 | 25161 ft | 461 kts | 170° |
| 2026-05-01 14:44 | 51.90397 | 14.16323 | 25738 ft | 471 kts | 185° |
| 2026-05-01 14:44 | 51.87175 | 14.15282 | 25998 ft | 476 kts | 194° |
| 2026-05-01 14:45 | 51.84051 | 14.13428 | 26282 ft | 479 kts | 202° |
| 2026-05-01 14:45 | 51.77902 | 14.09133 | 26825 ft | 483 kts | 202° |
| 2026-05-01 14:45 | 51.74812 | 14.06997 | 27097 ft | 485 kts | 202° |
| 2026-05-01 14:46 | 51.71698 | 14.04854 | 27363 ft | 486 kts | 202° |
| 2026-05-01 14:46 | 51.65443 | 14.00566 | 27921 ft | 489 kts | 202° |
| 2026-05-01 14:46 | 51.62317 | 13.98428 | 28310 ft | 488 kts | 202° |
| 2026-05-01 14:47 | 51.59197 | 13.96287 | 28699 ft | 487 kts | 202° |
| 2026-05-01 14:47 | 51.56125 | 13.94179 | 29069 ft | 486 kts | 202° |
| 2026-05-01 14:47 | 51.53016 | 13.92053 | 29456 ft | 485 kts | 202° |
| 2026-05-01 14:48 | 51.46789 | 13.87879 | 30209 ft | 483 kts | 198° |
| 2026-05-01 14:48 | 51.43566 | 13.86434 | 30559 ft | 481 kts | 190° |
| 2026-05-01 14:48 | 51.36997 | 13.84524 | 31210 ft | 478 kts | 189° |
| 2026-05-01 14:49 | 51.30454 | 13.82643 | 31868 ft | 476 kts | 189° |
| 2026-05-01 14:49 | 51.23932 | 13.80777 | 32520 ft | 475 kts | 189° |
| 2026-05-01 14:50 | 51.19635 | 13.79546 | 32946 ft | 473 kts | 189° |
| 2026-05-01 14:50 | 51.11018 | 13.77074 | 33790 ft | 471 kts | 189° |
| 2026-05-01 14:51 | 51.07792 | 13.76155 | 34102 ft | 470 kts | 189° |
| 2026-05-01 14:51 | 51.01358 | 13.74334 | 34684 ft | 469 kts | 189° |
| 2026-05-01 14:52 | 50.94980 | 13.72526 | 35199 ft | 468 kts | 189° |
| 2026-05-01 14:52 | 50.91733 | 13.71605 | 35444 ft | 468 kts | 189° |
| 2026-05-01 14:52 | 50.85418 | 13.69171 | 35891 ft | 468 kts | 195° |
| 2026-05-01 14:53 | 50.82311 | 13.67762 | 36107 ft | 467 kts | 195° |
| 2026-05-01 14:53 | 50.79158 | 13.66325 | 36310 ft | 468 kts | 195° |
| 2026-05-01 14:53 | 50.76026 | 13.64905 | 36367 ft | 469 kts | 195° |
| 2026-05-01 14:54 | 50.69680 | 13.62388 | 36370 ft | 469 kts | 188° |
| 2026-05-01 14:54 | 50.63271 | 13.60780 | 36371 ft | 469 kts | 188° |
| 2026-05-01 14:55 | 50.56822 | 13.59154 | 36373 ft | 469 kts | 188° |
| 2026-05-01 14:55 | 50.50380 | 13.57532 | 36371 ft | 469 kts | 188° |
| 2026-05-01 14:56 | 50.43923 | 13.55911 | 36366 ft | 469 kts | 188° |
| 2026-05-01 14:56 | 50.37469 | 13.54293 | 36365 ft | 469 kts | 188° |
| 2026-05-01 14:57 | 50.31001 | 13.52663 | 36367 ft | 470 kts | 188° |
| 2026-05-01 14:57 | 50.21365 | 13.50260 | 36366 ft | 469 kts | 188° |
| 2026-05-01 14:58 | 50.14909 | 13.48662 | 36370 ft | 470 kts | 188° |
| 2026-05-01 14:58 | 50.08455 | 13.47065 | 36371 ft | 470 kts | 188° |
| 2026-05-01 14:59 | 50.01992 | 13.45466 | 36369 ft | 470 kts | 188° |
| 2026-05-01 14:59 | 49.95520 | 13.43861 | 36370 ft | 470 kts | 188° |
| 2026-05-01 15:00 | 49.85851 | 13.41482 | 36379 ft | 471 kts | 188° |
| 2026-05-01 15:01 | 49.79372 | 13.39910 | 36383 ft | 471 kts | 188° |
| 2026-05-01 15:01 | 49.72901 | 13.38340 | 36383 ft | 470 kts | 188° |
| 2026-05-01 15:02 | 49.67531 | 13.37029 | 36382 ft | 470 kts | 188° |
| 2026-05-01 15:02 | 49.61052 | 13.35455 | 36382 ft | 470 kts | 188° |
| 2026-05-01 15:03 | 49.54586 | 13.33886 | 36382 ft | 470 kts | 188° |
| 2026-05-01 15:03 | 49.48119 | 13.32323 | 36378 ft | 470 kts | 188° |
| 2026-05-01 15:04 | 49.41648 | 13.30769 | 36373 ft | 470 kts | 188° |
| 2026-05-01 15:04 | 49.35178 | 13.29211 | 36371 ft | 471 kts | 188° |
| 2026-05-01 15:05 | 49.28704 | 13.27641 | 36369 ft | 471 kts | 190° |
| 2026-05-01 15:05 | 49.22541 | 13.24443 | 36365 ft | 472 kts | 208° |
| 2026-05-01 15:06 | 49.17062 | 13.18925 | 36364 ft | 472 kts | 216° |
| 2026-05-01 15:06 | 49.11691 | 13.13134 | 36361 ft | 473 kts | 216° |
| 2026-05-01 15:07 | 49.06307 | 13.07367 | 36358 ft | 473 kts | 215° |
| 2026-05-01 15:07 | 49.00908 | 13.01592 | 36357 ft | 473 kts | 216° |
| 2026-05-01 15:08 | 48.95515 | 12.95832 | 36365 ft | 473 kts | 216° |
| 2026-05-01 15:08 | 48.90123 | 12.90097 | 36367 ft | 473 kts | 215° |
| 2026-05-01 15:09 | 48.84732 | 12.84371 | 36374 ft | 472 kts | 215° |
| 2026-05-01 15:09 | 48.79347 | 12.78656 | 36373 ft | 473 kts | 215° |
| 2026-05-01 15:10 | 48.73979 | 12.72985 | 36370 ft | 473 kts | 215° |
| 2026-05-01 15:10 | 48.65863 | 12.64448 | 36362 ft | 473 kts | 215° |
| 2026-05-01 15:11 | 48.57740 | 12.55921 | 36366 ft | 473 kts | 215° |
| 2026-05-01 15:12 | 48.52323 | 12.50247 | 36363 ft | 474 kts | 215° |
| 2026-05-01 15:12 | 48.44173 | 12.41767 | 36360 ft | 475 kts | 215° |
| 2026-05-01 15:14 | 48.30595 | 12.27702 | 36360 ft | 475 kts | 215° |
| 2026-05-01 15:14 | 48.22425 | 12.19269 | 36350 ft | 475 kts | 215° |
| 2026-05-01 15:15 | 48.10722 | 12.10428 | 36342 ft | 474 kts | 195° |
| 2026-05-01 15:16 | 47.98058 | 12.05064 | 36330 ft | 474 kts | 195° |
| 2026-05-01 15:18 | 47.82166 | 11.98343 | 36319 ft | 475 kts | 195° |
| 2026-05-01 15:19 | 47.69440 | 11.92922 | 36307 ft | 475 kts | 197° |
| 2026-05-01 15:19 | 47.60005 | 11.88364 | 36304 ft | 476 kts | 198° |